sensor_id;sensor_type;location;lat;lon;timestamp;P1;durP1;ratioP1;P2;durP2;ratioP2
21424;SDS011;10873;51.132;16.848;2023-06-19T01:09:34;4.05;;;3.65;;
21424;SDS011;10873;51.132;16.848;2023-06-19T01:12:09;4.38;;;3.50;;
21424;SDS011;10873;51.132;16.848;2023-06-19T01:14:43;4.13;;;3.72;;
21424;SDS011;10873;51.132;16.848;2023-06-19T01:17:22;3.70;;;3.40;;
21424;SDS011;10873;51.132;16.848;2023-06-19T01:19:59;3.90;;;3.60;;
21424;SDS011;10873;51.132;16.848;2023-06-19T01:22:42;4.20;;;3.40;;
21424;SDS011;10873;51.132;16.848;2023-06-19T01:25:13;3.70;;;3.40;;
21424;SDS011;10873;51.132;16.848;2023-06-19T01:27:44;3.90;;;3.60;;
21424;SDS011;10873;51.132;16.848;2023-06-19T01:30:13;3.55;;;3.25;;
21424;SDS011;10873;51.132;16.848;2023-06-19T01:32:50;3.67;;;3.38;;
21424;SDS011;10873;51.132;16.848;2023-06-19T01:35:29;4.00;;;3.60;;
21424;SDS011;10873;51.132;16.848;2023-06-19T01:38:17;3.55;;;3.20;;
21424;SDS011;10873;51.132;16.848;2023-06-19T01:40:52;3.38;;;3.08;;
21424;SDS011;10873;51.132;16.848;2023-06-19T01:43:26;3.60;;;3.30;;
21424;SDS011;10873;51.132;16.848;2023-06-19T01:46:11;3.72;;;3.42;;
21424;SDS011;10873;51.132;16.848;2023-06-19T01:48:59;3.65;;;3.35;;
21424;SDS011;10873;51.132;16.848;2023-06-19T01:51:32;3.53;;;3.22;;
21424;SDS011;10873;51.132;16.848;2023-06-19T01:54:09;3.92;;;3.53;;
21424;SDS011;10873;51.132;16.848;2023-06-19T01:56:37;3.70;;;3.20;;
21424;SDS011;10873;51.132;16.848;2023-06-19T01:59:11;3.65;;;3.35;;
21424;SDS011;10873;51.132;16.848;2023-06-19T02:01:40;3.58;;;3.28;;
21424;SDS011;10873;51.132;16.848;2023-06-19T02:04:10;4.03;;;3.63;;
21424;SDS011;10873;51.132;16.848;2023-06-19T02:06:46;3.33;;;3.03;;
21424;SDS011;10873;51.132;16.848;2023-06-19T02:09:22;3.47;;;3.17;;
21424;SDS011;10873;51.132;16.848;2023-06-19T02:11:57;4.10;;;3.42;;
21424;SDS011;10873;51.132;16.848;2023-06-19T02:14:32;3.63;;;3.33;;
21424;SDS011;10873;51.132;16.848;2023-06-19T02:17:00;3.63;;;3.33;;
21424;SDS011;10873;51.132;16.848;2023-06-19T02:19:32;3.55;;;3.25;;
21424;SDS011;10873;51.132;16.848;2023-06-19T02:22:21;3.38;;;3.08;;
21424;SDS011;10873;51.132;16.848;2023-06-19T02:24:55;3.47;;;3.17;;
21424;SDS011;10873;51.132;16.848;2023-06-19T02:27:44;4.53;;;2.97;;
21424;SDS011;10873;51.132;16.848;2023-06-19T02:30:17;3.40;;;3.10;;
21424;SDS011;10873;51.132;16.848;2023-06-19T02:32:47;4.18;;;3.35;;
21424;SDS011;10873;51.132;16.848;2023-06-19T02:35:32;3.58;;;3.17;;
21424;SDS011;10873;51.132;16.848;2023-06-19T02:38:15;3.40;;;3.10;;
21424;SDS011;10873;51.132;16.848;2023-06-19T02:40:57;3.75;;;3.20;;
21424;SDS011;10873;51.132;16.848;2023-06-19T02:43:45;3.30;;;2.80;;
21424;SDS011;10873;51.132;16.848;2023-06-19T02:46:17;3.95;;;3.10;;
21424;SDS011;10873;51.132;16.848;2023-06-19T02:48:48;3.03;;;2.78;;
21424;SDS011;10873;51.132;16.848;2023-06-19T02:51:37;3.58;;;3.25;;
21424;SDS011;10873;51.132;16.848;2023-06-19T02:54:14;3.20;;;2.90;;
21424;SDS011;10873;51.132;16.848;2023-06-19T02:57:09;3.17;;;2.88;;
21424;SDS011;10873;51.132;16.848;2023-06-19T02:59:38;2.80;;;2.60;;
21424;SDS011;10873;51.132;16.848;2023-06-19T03:02:07;2.90;;;2.60;;
21424;SDS011;10873;51.132;16.848;2023-06-19T03:04:43;3.67;;;2.67;;
21424;SDS011;10873;51.132;16.848;2023-06-19T03:07:16;3.40;;;3.10;;
21424;SDS011;10873;51.132;16.848;2023-06-19T03:10:09;3.40;;;3.10;;
21424;SDS011;10873;51.132;16.848;2023-06-19T03:12:48;3.22;;;2.92;;
21424;SDS011;10873;51.132;16.848;2023-06-19T03:15:32;3.70;;;2.70;;
21424;SDS011;10873;51.132;16.848;2023-06-19T03:18:26;3.22;;;2.70;;
21424;SDS011;10873;51.132;16.848;2023-06-19T03:21:01;3.00;;;2.80;;
21424;SDS011;10873;51.132;16.848;2023-06-19T03:23:34;3.97;;;2.80;;
21424;SDS011;10873;51.132;16.848;2023-06-19T03:26:05;3.03;;;2.83;;
21424;SDS011;10873;51.132;16.848;2023-06-19T03:28:44;3.03;;;2.72;;
21424;SDS011;10873;51.132;16.848;2023-06-19T03:31:15;6.93;;;3.00;;
21424;SDS011;10873;51.132;16.848;2023-06-19T03:34:10;3.20;;;2.90;;
21424;SDS011;10873;51.132;16.848;2023-06-19T03:36:43;3.33;;;3.03;;
21424;SDS011;10873;51.132;16.848;2023-06-19T03:39:23;40.97;;;8.95;;
21424;SDS011;10873;51.132;16.848;2023-06-19T03:42:11;18.38;;;5.10;;
21424;SDS011;10873;51.132;16.848;2023-06-19T03:44:53;6.90;;;3.60;;
21424;SDS011;10873;51.132;16.848;2023-06-19T03:47:43;5.55;;;3.30;;
21424;SDS011;10873;51.132;16.848;2023-06-19T03:50:16;10.80;;;3.10;;
21424;SDS011;10873;51.132;16.848;2023-06-19T03:52:53;5.53;;;3.30;;
21424;SDS011;10873;51.132;16.848;2023-06-19T03:55:38;6.05;;;3.40;;
21424;SDS011;10873;51.132;16.848;2023-06-19T03:58:36;9.25;;;3.97;;
21424;SDS011;10873;51.132;16.848;2023-06-19T04:26:12;9.23;;;4.05;;
21424;SDS011;10873;51.132;16.848;2023-06-19T04:28:41;4.28;;;3.88;;
21424;SDS011;10873;51.132;16.848;2023-06-19T04:31:24;6.60;;;3.85;;
21424;SDS011;10873;51.132;16.848;2023-06-19T04:34:31;5.18;;;3.92;;
21424;SDS011;10873;51.132;16.848;2023-06-19T04:37:12;7.93;;;4.35;;
21424;SDS011;10873;51.132;16.848;2023-06-19T04:48:27;7.60;;;4.60;;
21424;SDS011;10873;51.132;16.848;2023-06-19T04:53:47;8.15;;;4.47;;
21424;SDS011;10873;51.132;16.848;2023-06-19T04:56:28;11.20;;;4.60;;
21424;SDS011;10873;51.132;16.848;2023-06-19T04:59:11;6.00;;;4.35;;
21424;SDS011;10873;51.132;16.848;2023-06-19T05:02:05;12.27;;;4.80;;
21424;SDS011;10873;51.132;16.848;2023-06-19T05:05:16;8.50;;;4.72;;
21424;SDS011;10873;51.132;16.848;2023-06-19T05:07:59;9.40;;;4.55;;
21424;SDS011;10873;51.132;16.848;2023-06-19T05:10:45;9.27;;;4.43;;
21424;SDS011;10873;51.132;16.848;2023-06-19T05:13:31;8.00;;;4.45;;
21424;SDS011;10873;51.132;16.848;2023-06-19T05:16:00;9.75;;;4.75;;
21424;SDS011;10873;51.132;16.848;2023-06-19T05:18:31;4.78;;;4.22;;
21424;SDS011;10873;51.132;16.848;2023-06-19T05:21:09;6.90;;;4.80;;
21424;SDS011;10873;51.132;16.848;2023-06-19T05:24:07;7.55;;;4.60;;
21424;SDS011;10873;51.132;16.848;2023-06-19T05:26:39;17.23;;;4.97;;
21424;SDS011;10873;51.132;16.848;2023-06-19T05:29:25;10.30;;;4.75;;
21424;SDS011;10873;51.132;16.848;2023-06-19T05:32:06;9.80;;;4.57;;
21424;SDS011;10873;51.132;16.848;2023-06-19T05:34:54;12.93;;;5.38;;
21424;SDS011;10873;51.132;16.848;2023-06-19T05:37:35;8.90;;;4.65;;
21424;SDS011;10873;51.132;16.848;2023-06-19T05:40:24;7.45;;;4.90;;
21424;SDS011;10873;51.132;16.848;2023-06-19T05:42:58;6.88;;;4.30;;
21424;SDS011;10873;51.132;16.848;2023-06-19T05:48:17;7.55;;;4.93;;
21424;SDS011;10873;51.132;16.848;2023-06-19T05:51:17;6.18;;;4.70;;
21424;SDS011;10873;51.132;16.848;2023-06-19T05:53:50;6.47;;;5.10;;
21424;SDS011;10873;51.132;16.848;2023-06-19T05:56:40;6.22;;;5.25;;
21424;SDS011;10873;51.132;16.848;2023-06-19T05:59:19;6.70;;;4.47;;
21424;SDS011;10873;51.132;16.848;2023-06-19T06:01:52;9.40;;;4.72;;
21424;SDS011;10873;51.132;16.848;2023-06-19T06:04:27;7.95;;;4.43;;
21424;SDS011;10873;51.132;16.848;2023-06-19T06:07:10;7.75;;;4.90;;
21424;SDS011;10873;51.132;16.848;2023-06-19T06:09:48;6.22;;;4.35;;
21424;SDS011;10873;51.132;16.848;2023-06-19T06:15:14;11.32;;;5.03;;
21424;SDS011;10873;51.132;16.848;2023-06-19T06:17:56;7.95;;;5.13;;
21424;SDS011;10873;51.132;16.848;2023-06-19T06:20:55;7.95;;;4.50;;
21424;SDS011;10873;51.132;16.848;2023-06-19T06:23:30;8.88;;;4.88;;
21424;SDS011;10873;51.132;16.848;2023-06-19T06:26:07;9.15;;;4.65;;
21424;SDS011;10873;51.132;16.848;2023-06-19T06:28:44;11.95;;;5.20;;
21424;SDS011;10873;51.132;16.848;2023-06-19T06:31:26;9.00;;;4.55;;
21424;SDS011;10873;51.132;16.848;2023-06-19T06:34:22;6.38;;;4.75;;
21424;SDS011;10873;51.132;16.848;2023-06-19T06:37:22;12.98;;;4.82;;
21424;SDS011;10873;51.132;16.848;2023-06-19T06:40:00;12.40;;;5.15;;
21424;SDS011;10873;51.132;16.848;2023-06-19T06:43:09;7.90;;;4.70;;
21424;SDS011;10873;51.132;16.848;2023-06-19T06:48:48;8.95;;;4.70;;
21424;SDS011;10873;51.132;16.848;2023-06-19T06:51:30;6.57;;;4.38;;
21424;SDS011;10873;51.132;16.848;2023-06-19T06:54:33;7.80;;;4.82;;
21424;SDS011;10873;51.132;16.848;2023-06-19T06:57:04;8.57;;;4.78;;
21424;SDS011;10873;51.132;16.848;2023-06-19T06:59:46;6.90;;;5.10;;
21424;SDS011;10873;51.132;16.848;2023-06-19T07:02:20;8.25;;;5.30;;
21424;SDS011;10873;51.132;16.848;2023-06-19T07:05:08;7.03;;;5.18;;
21424;SDS011;10873;51.132;16.848;2023-06-19T07:07:47;9.52;;;4.70;;
21424;SDS011;10873;51.132;16.848;2023-06-19T07:10:32;5.38;;;4.80;;
21424;SDS011;10873;51.132;16.848;2023-06-19T07:13:06;6.60;;;5.00;;
21424;SDS011;10873;51.132;16.848;2023-06-19T07:15:47;7.25;;;4.90;;
21424;SDS011;10873;51.132;16.848;2023-06-19T07:18:37;7.15;;;5.25;;
21424;SDS011;10873;51.132;16.848;2023-06-19T07:21:22;5.93;;;4.68;;
21424;SDS011;10873;51.132;16.848;2023-06-19T07:24:09;7.32;;;4.88;;
21424;SDS011;10873;51.132;16.848;2023-06-19T07:30:01;22.90;;;5.65;;
21424;SDS011;10873;51.132;16.848;2023-06-19T07:32:57;19.23;;;5.95;;
21424;SDS011;10873;51.132;16.848;2023-06-19T07:35:55;17.05;;;5.70;;
21424;SDS011;10873;51.132;16.848;2023-06-19T07:38:59;19.05;;;6.22;;
21424;SDS011;10873;51.132;16.848;2023-06-19T07:41:39;18.10;;;5.80;;
21424;SDS011;10873;51.132;16.848;2023-06-19T07:44:36;9.23;;;5.30;;
21424;SDS011;10873;51.132;16.848;2023-06-19T07:47:09;11.82;;;5.72;;
21424;SDS011;10873;51.132;16.848;2023-06-19T07:50:40;16.92;;;6.43;;
21424;SDS011;10873;51.132;16.848;2023-06-19T07:53:30;10.10;;;5.45;;
21424;SDS011;10873;51.132;16.848;2023-06-19T07:56:23;15.98;;;5.53;;
21424;SDS011;10873;51.132;16.848;2023-06-19T07:59:52;15.65;;;5.85;;
21424;SDS011;10873;51.132;16.848;2023-06-19T08:02:57;17.13;;;6.97;;
21424;SDS011;10873;51.132;16.848;2023-06-19T08:05:55;18.10;;;6.93;;
21424;SDS011;10873;51.132;16.848;2023-06-19T08:15:30;23.08;;;8.38;;
21424;SDS011;10873;51.132;16.848;2023-06-19T08:22:22;28.20;;;8.73;;
21424;SDS011;10873;51.132;16.848;2023-06-19T08:24:47;18.08;;;7.03;;
21424;SDS011;10873;51.132;16.848;2023-06-19T08:28:21;20.50;;;6.90;;
21424;SDS011;10873;51.132;16.848;2023-06-19T08:31:11;15.68;;;6.85;;
21424;SDS011;10873;51.132;16.848;2023-06-19T08:34:17;18.17;;;7.03;;
21424;SDS011;10873;51.132;16.848;2023-06-19T08:40:14;20.55;;;7.40;;
21424;SDS011;10873;51.132;16.848;2023-06-19T08:42:58;19.33;;;8.20;;
21424;SDS011;10873;51.132;16.848;2023-06-19T08:45:51;15.52;;;7.43;;
21424;SDS011;10873;51.132;16.848;2023-06-19T08:48:39;19.50;;;7.10;;
21424;SDS011;10873;51.132;16.848;2023-06-19T08:51:11;16.38;;;6.95;;
21424;SDS011;10873;51.132;16.848;2023-06-19T08:54:06;21.90;;;7.03;;
21424;SDS011;10873;51.132;16.848;2023-06-19T08:57:47;20.25;;;6.63;;
21424;SDS011;10873;51.132;16.848;2023-06-19T09:00:22;19.48;;;7.20;;
21424;SDS011;10873;51.132;16.848;2023-06-19T09:03:30;19.42;;;7.07;;
21424;SDS011;10873;51.132;16.848;2023-06-19T09:06:34;19.95;;;6.90;;
21424;SDS011;10873;51.132;16.848;2023-06-19T09:10:11;27.02;;;7.00;;
21424;SDS011;10873;51.132;16.848;2023-06-19T09:13:36;23.23;;;6.88;;
21424;SDS011;10873;51.132;16.848;2023-06-19T09:16:00;32.10;;;6.95;;
21424;SDS011;10873;51.132;16.848;2023-06-19T09:18:58;21.70;;;5.63;;
21424;SDS011;10873;51.132;16.848;2023-06-19T09:21:41;16.92;;;5.80;;
21424;SDS011;10873;51.132;16.848;2023-06-19T09:25:04;18.33;;;5.88;;
21424;SDS011;10873;51.132;16.848;2023-06-19T09:28:05;13.82;;;5.72;;
21424;SDS011;10873;51.132;16.848;2023-06-19T09:31:17;17.20;;;5.75;;
21424;SDS011;10873;51.132;16.848;2023-06-19T09:48:53;9.85;;;4.93;;
21424;SDS011;10873;51.132;16.848;2023-06-19T10:19:10;6.78;;;4.05;;
21424;SDS011;10873;51.132;16.848;2023-06-19T10:25:33;6.32;;;3.80;;
21424;SDS011;10873;51.132;16.848;2023-06-19T10:28:46;4.38;;;3.85;;
21424;SDS011;10873;51.132;16.848;2023-06-19T10:31:42;5.15;;;4.13;;
21424;SDS011;10873;51.132;16.848;2023-06-19T10:34:44;5.10;;;3.80;;
21424;SDS011;10873;51.132;16.848;2023-06-19T10:38:13;4.15;;;3.53;;
21424;SDS011;10873;51.132;16.848;2023-06-19T10:41:08;3.92;;;3.58;;
21424;SDS011;10873;51.132;16.848;2023-06-19T10:44:02;5.15;;;4.00;;
21424;SDS011;10873;51.132;16.848;2023-06-19T10:46:41;3.80;;;3.47;;
21424;SDS011;10873;51.132;16.848;2023-06-19T10:49:23;5.47;;;3.58;;
21424;SDS011;10873;51.132;16.848;2023-06-19T10:51:57;4.10;;;3.67;;
21424;SDS011;10873;51.132;16.848;2023-06-19T10:54:37;4.03;;;3.50;;
21424;SDS011;10873;51.132;16.848;2023-06-19T10:57:10;4.35;;;3.80;;
21424;SDS011;10873;51.132;16.848;2023-06-19T10:59:53;3.40;;;3.10;;
21424;SDS011;10873;51.132;16.848;2023-06-19T11:02:38;4.28;;;3.53;;
21424;SDS011;10873;51.132;16.848;2023-06-19T11:05:15;3.58;;;3.28;;
21424;SDS011;10873;51.132;16.848;2023-06-19T11:07:56;3.97;;;3.40;;
21424;SDS011;10873;51.132;16.848;2023-06-19T11:10:36;4.70;;;3.80;;
21424;SDS011;10873;51.132;16.848;2023-06-19T11:13:07;3.75;;;3.35;;
21424;SDS011;10873;51.132;16.848;2023-06-19T11:15:44;3.90;;;3.53;;
21424;SDS011;10873;51.132;16.848;2023-06-19T11:18:20;5.35;;;4.10;;
21424;SDS011;10873;51.132;16.848;2023-06-19T11:20:57;3.97;;;3.58;;
21424;SDS011;10873;51.132;16.848;2023-06-19T11:23:37;5.72;;;3.53;;
21424;SDS011;10873;51.132;16.848;2023-06-19T11:26:18;3.83;;;3.50;;
21424;SDS011;10873;51.132;16.848;2023-06-19T11:28:52;4.32;;;3.92;;
21424;SDS011;10873;51.132;16.848;2023-06-19T11:31:33;7.82;;;4.03;;
21424;SDS011;10873;51.132;16.848;2023-06-19T11:34:30;4.95;;;3.80;;
21424;SDS011;10873;51.132;16.848;2023-06-19T11:37:02;4.97;;;3.63;;
21424;SDS011;10873;51.132;16.848;2023-06-19T11:39:49;11.88;;;4.45;;
21424;SDS011;10873;51.132;16.848;2023-06-19T11:42:18;23.15;;;6.30;;
21424;SDS011;10873;51.132;16.848;2023-06-19T11:45:00;31.15;;;6.10;;
21424;SDS011;10873;51.132;16.848;2023-06-19T11:47:42;27.38;;;5.85;;
21424;SDS011;10873;51.132;16.848;2023-06-19T11:50:17;22.50;;;5.65;;
21424;SDS011;10873;51.132;16.848;2023-06-19T11:52:47;23.90;;;5.53;;
21424;SDS011;10873;51.132;16.848;2023-06-19T11:55:24;17.35;;;5.43;;
21424;SDS011;10873;51.132;16.848;2023-06-19T11:57:53;18.10;;;5.45;;
21424;SDS011;10873;51.132;16.848;2023-06-19T12:00:21;13.45;;;4.82;;
21424;SDS011;10873;51.132;16.848;2023-06-19T12:02:55;10.15;;;5.50;;
21424;SDS011;10873;51.132;16.848;2023-06-19T12:05:29;10.45;;;4.65;;
21424;SDS011;10873;51.132;16.848;2023-06-19T12:08:07;11.52;;;5.10;;
21424;SDS011;10873;51.132;16.848;2023-06-19T12:10:42;9.25;;;5.13;;
21424;SDS011;10873;51.132;16.848;2023-06-19T12:13:17;11.40;;;4.80;;
21424;SDS011;10873;51.132;16.848;2023-06-19T12:15:55;12.32;;;4.90;;
21424;SDS011;10873;51.132;16.848;2023-06-19T12:18:26;11.43;;;4.95;;
21424;SDS011;10873;51.132;16.848;2023-06-19T12:21:03;8.20;;;4.55;;
21424;SDS011;10873;51.132;16.848;2023-06-19T12:23:33;9.13;;;4.18;;
21424;SDS011;10873;51.132;16.848;2023-06-19T12:26:09;10.18;;;4.18;;
21424;SDS011;10873;51.132;16.848;2023-06-19T12:28:37;9.63;;;4.07;;
21424;SDS011;10873;51.132;16.848;2023-06-19T12:31:17;6.72;;;4.18;;
21424;SDS011;10873;51.132;16.848;2023-06-19T12:33:53;6.32;;;4.45;;
21424;SDS011;10873;51.132;16.848;2023-06-19T12:36:44;7.90;;;3.70;;
21424;SDS011;10873;51.132;16.848;2023-06-19T12:39:16;5.60;;;4.55;;
21424;SDS011;10873;51.132;16.848;2023-06-19T12:42:10;7.57;;;3.72;;
21424;SDS011;10873;51.132;16.848;2023-06-19T12:44:49;7.00;;;3.78;;
21424;SDS011;10873;51.132;16.848;2023-06-19T12:47:36;7.95;;;4.07;;
21424;SDS011;10873;51.132;16.848;2023-06-19T12:50:21;6.43;;;4.15;;
21424;SDS011;10873;51.132;16.848;2023-06-19T12:53:11;5.18;;;4.20;;
21424;SDS011;10873;51.132;16.848;2023-06-19T12:55:50;6.38;;;4.70;;
21424;SDS011;10873;51.132;16.848;2023-06-19T12:58:23;6.97;;;4.20;;
21424;SDS011;10873;51.132;16.848;2023-06-19T13:01:02;5.65;;;4.20;;
21424;SDS011;10873;51.132;16.848;2023-06-19T13:04:11;6.07;;;3.95;;
21424;SDS011;10873;51.132;16.848;2023-06-19T13:14:58;6.85;;;4.20;;
21424;SDS011;10873;51.132;16.848;2023-06-19T13:18:14;6.85;;;4.57;;
21424;SDS011;10873;51.132;16.848;2023-06-19T13:21:21;4.72;;;4.22;;
21424;SDS011;10873;51.132;16.848;2023-06-19T14:03:12;4.50;;;4.10;;
21424;SDS011;10873;51.132;16.848;2023-06-19T14:05:59;4.70;;;4.22;;
21424;SDS011;10873;51.132;16.848;2023-06-19T14:10:15;6.45;;;4.15;;
21424;SDS011;10873;51.132;16.848;2023-06-19T14:12:12;5.18;;;4.20;;
21424;SDS011;10873;51.132;16.848;2023-06-19T14:14:53;7.60;;;5.35;;
21424;SDS011;10873;51.132;16.848;2023-06-19T14:17:24;7.82;;;5.65;;
21424;SDS011;10873;51.132;16.848;2023-06-19T14:20:41;7.53;;;4.93;;
21424;SDS011;10873;51.132;16.848;2023-06-19T14:23:21;7.38;;;4.70;;
21424;SDS011;10873;51.132;16.848;2023-06-19T14:25:55;9.68;;;5.60;;
21424;SDS011;10873;51.132;16.848;2023-06-19T14:28:36;7.60;;;4.80;;
21424;SDS011;10873;51.132;16.848;2023-06-19T14:31:26;7.70;;;5.22;;
21424;SDS011;10873;51.132;16.848;2023-06-19T14:34:29;8.05;;;4.97;;
21424;SDS011;10873;51.132;16.848;2023-06-19T14:37:28;8.05;;;5.10;;
21424;SDS011;10873;51.132;16.848;2023-06-19T14:40:16;6.88;;;5.30;;
21424;SDS011;10873;51.132;16.848;2023-06-19T14:43:02;6.40;;;5.13;;
21424;SDS011;10873;51.132;16.848;2023-06-19T14:45:46;5.60;;;4.78;;
21424;SDS011;10873;51.132;16.848;2023-06-19T14:48:29;12.30;;;5.22;;
21424;SDS011;10873;51.132;16.848;2023-06-19T14:51:30;6.50;;;4.68;;
21424;SDS011;10873;51.132;16.848;2023-06-19T14:54:26;6.03;;;4.90;;
21424;SDS011;10873;51.132;16.848;2023-06-19T14:57:08;6.25;;;4.30;;
21424;SDS011;10873;51.132;16.848;2023-06-19T15:00:21;6.65;;;5.20;;
21424;SDS011;10873;51.132;16.848;2023-06-19T15:03:11;5.65;;;5.05;;
21424;SDS011;10873;51.132;16.848;2023-06-19T15:06:06;5.47;;;4.55;;
21424;SDS011;10873;51.132;16.848;2023-06-19T15:08:59;7.70;;;4.82;;
21424;SDS011;10873;51.132;16.848;2023-06-19T15:11:48;7.38;;;5.20;;
21424;SDS011;10873;51.132;16.848;2023-06-19T15:14:24;5.55;;;4.85;;
21424;SDS011;10873;51.132;16.848;2023-06-19T15:17:06;6.97;;;5.32;;
21424;SDS011;10873;51.132;16.848;2023-06-19T15:19:44;14.82;;;5.70;;
21424;SDS011;10873;51.132;16.848;2023-06-19T15:22:39;8.10;;;5.70;;
21424;SDS011;10873;51.132;16.848;2023-06-19T15:25:11;9.38;;;5.60;;
21424;SDS011;10873;51.132;16.848;2023-06-19T15:28:00;7.18;;;5.50;;
21424;SDS011;10873;51.132;16.848;2023-06-19T15:30:45;6.65;;;5.43;;
21424;SDS011;10873;51.132;16.848;2023-06-19T15:33:19;5.97;;;5.40;;
21424;SDS011;10873;51.132;16.848;2023-06-19T15:35:58;9.07;;;5.65;;
21424;SDS011;10873;51.132;16.848;2023-06-19T15:38:41;7.45;;;5.43;;
21424;SDS011;10873;51.132;16.848;2023-06-19T15:41:10;9.18;;;5.47;;
21424;SDS011;10873;51.132;16.848;2023-06-19T15:43:49;6.28;;;5.22;;
21424;SDS011;10873;51.132;16.848;2023-06-19T15:46:45;9.23;;;5.45;;
21424;SDS011;10873;51.132;16.848;2023-06-19T15:49:16;7.45;;;5.57;;
21424;SDS011;10873;51.132;16.848;2023-06-19T15:52:02;8.98;;;5.20;;
21424;SDS011;10873;51.132;16.848;2023-06-19T15:55:06;5.95;;;5.35;;
21424;SDS011;10873;51.132;16.848;2023-06-19T15:57:42;8.90;;;5.50;;
21424;SDS011;10873;51.132;16.848;2023-06-19T16:00:18;6.57;;;5.43;;
21424;SDS011;10873;51.132;16.848;2023-06-19T16:03:06;8.55;;;5.15;;
21424;SDS011;10873;51.132;16.848;2023-06-19T16:05:46;5.90;;;5.40;;
21424;SDS011;10873;51.132;16.848;2023-06-19T16:08:37;6.60;;;5.65;;
21424;SDS011;10873;51.132;16.848;2023-06-19T16:11:26;5.93;;;5.43;;
21424;SDS011;10873;51.132;16.848;2023-06-19T16:14:10;6.85;;;5.18;;
21424;SDS011;10873;51.132;16.848;2023-06-19T16:20:15;6.68;;;5.35;;
21424;SDS011;10873;51.132;16.848;2023-06-19T16:23:22;7.30;;;5.82;;
21424;SDS011;10873;51.132;16.848;2023-06-19T16:29:48;6.35;;;5.75;;
21424;SDS011;10873;51.132;16.848;2023-06-19T16:32:50;8.45;;;5.22;;
21424;SDS011;10873;51.132;16.848;2023-06-19T16:35:39;11.48;;;5.47;;
21424;SDS011;10873;51.132;16.848;2023-06-19T16:38:13;9.75;;;5.53;;
21424;SDS011;10873;51.132;16.848;2023-06-19T16:40:52;10.25;;;5.65;;
21424;SDS011;10873;51.132;16.848;2023-06-19T16:46:29;10.07;;;5.68;;
21424;SDS011;10873;51.132;16.848;2023-06-19T16:49:14;10.13;;;5.43;;
21424;SDS011;10873;51.132;16.848;2023-06-19T16:52:06;12.25;;;5.82;;
21424;SDS011;10873;51.132;16.848;2023-06-19T16:54:41;9.23;;;5.53;;
21424;SDS011;10873;51.132;16.848;2023-06-19T16:57:31;7.13;;;5.47;;
21424;SDS011;10873;51.132;16.848;2023-06-19T17:00:01;11.18;;;5.70;;
21424;SDS011;10873;51.132;16.848;2023-06-19T17:03:07;6.65;;;5.82;;
21424;SDS011;10873;51.132;16.848;2023-06-19T17:05:50;10.93;;;5.85;;
21424;SDS011;10873;51.132;16.848;2023-06-19T17:08:34;10.45;;;6.53;;
21424;SDS011;10873;51.132;16.848;2023-06-19T17:11:09;8.60;;;5.93;;
21424;SDS011;10873;51.132;16.848;2023-06-19T17:13:47;7.20;;;6.15;;
21424;SDS011;10873;51.132;16.848;2023-06-19T17:16:28;7.85;;;6.25;;
21424;SDS011;10873;51.132;16.848;2023-06-19T17:19:26;10.82;;;6.45;;
21424;SDS011;10873;51.132;16.848;2023-06-19T17:22:01;8.68;;;6.30;;
21424;SDS011;10873;51.132;16.848;2023-06-19T17:25:03;9.70;;;6.03;;
21424;SDS011;10873;51.132;16.848;2023-06-19T17:27:40;9.18;;;6.07;;
21424;SDS011;10873;51.132;16.848;2023-06-19T17:30:17;10.75;;;6.25;;
21424;SDS011;10873;51.132;16.848;2023-06-19T17:32:59;9.93;;;6.10;;
21424;SDS011;10873;51.132;16.848;2023-06-19T17:35:57;12.60;;;6.60;;
21424;SDS011;10873;51.132;16.848;2023-06-19T17:38:42;16.05;;;6.07;;
21424;SDS011;10873;51.132;16.848;2023-06-19T17:41:14;7.78;;;5.68;;
21424;SDS011;10873;51.132;16.848;2023-06-19T17:43:44;10.23;;;6.07;;
21424;SDS011;10873;51.132;16.848;2023-06-19T17:46:30;11.20;;;6.32;;
21424;SDS011;10873;51.132;16.848;2023-06-19T17:49:08;8.20;;;5.70;;
21424;SDS011;10873;51.132;16.848;2023-06-19T17:51:47;12.30;;;6.68;;
21424;SDS011;10873;51.132;16.848;2023-06-19T17:54:23;10.77;;;6.32;;
21424;SDS011;10873;51.132;16.848;2023-06-19T17:57:35;15.95;;;6.57;;
21424;SDS011;10873;51.132;16.848;2023-06-19T18:00:48;8.98;;;6.22;;
21424;SDS011;10873;51.132;16.848;2023-06-19T18:03:33;9.40;;;6.30;;
21424;SDS011;10873;51.132;16.848;2023-06-19T18:12:47;9.18;;;6.28;;
21424;SDS011;10873;51.132;16.848;2023-06-19T18:15:50;7.57;;;6.10;;
21424;SDS011;10873;51.132;16.848;2023-06-19T18:18:46;7.68;;;6.45;;
21424;SDS011;10873;51.132;16.848;2023-06-19T18:22:13;9.18;;;6.25;;
21424;SDS011;10873;51.132;16.848;2023-06-19T18:25:11;10.13;;;6.32;;
21424;SDS011;10873;51.132;16.848;2023-06-19T18:27:52;7.28;;;6.30;;
21424;SDS011;10873;51.132;16.848;2023-06-19T18:31:12;12.45;;;6.40;;
21424;SDS011;10873;51.132;16.848;2023-06-19T18:33:56;8.95;;;6.05;;
21424;SDS011;10873;51.132;16.848;2023-06-19T18:37:11;8.00;;;6.30;;
21424;SDS011;10873;51.132;16.848;2023-06-19T18:40:38;11.20;;;6.35;;
21424;SDS011;10873;51.132;16.848;2023-06-19T18:46:46;14.55;;;6.07;;
21424;SDS011;10873;51.132;16.848;2023-06-19T18:52:31;8.43;;;6.03;;
21424;SDS011;10873;51.132;16.848;2023-06-19T18:55:16;11.45;;;6.28;;
21424;SDS011;10873;51.132;16.848;2023-06-19T18:57:59;8.27;;;6.30;;
21424;SDS011;10873;51.132;16.848;2023-06-19T19:01:02;9.73;;;6.38;;
21424;SDS011;10873;51.132;16.848;2023-06-19T19:03:52;11.00;;;6.45;;
21424;SDS011;10873;51.132;16.848;2023-06-19T19:07:09;7.45;;;5.90;;
21424;SDS011;10873;51.132;16.848;2023-06-19T19:10:03;7.10;;;6.40;;
21424;SDS011;10873;51.132;16.848;2023-06-19T19:13:10;9.57;;;6.28;;
21424;SDS011;10873;51.132;16.848;2023-06-19T19:16:36;6.90;;;6.18;;
21424;SDS011;10873;51.132;16.848;2023-06-19T19:19:11;10.15;;;6.20;;
21424;SDS011;10873;51.132;16.848;2023-06-19T19:25:47;6.82;;;5.78;;
21424;SDS011;10873;51.132;16.848;2023-06-19T19:28:24;6.45;;;5.72;;
21424;SDS011;10873;51.132;16.848;2023-06-19T19:50:37;8.63;;;5.68;;
21424;SDS011;10873;51.132;16.848;2023-06-19T19:58:04;8.77;;;6.05;;
21424;SDS011;10873;51.132;16.848;2023-06-19T20:04:04;9.45;;;5.85;;
21424;SDS011;10873;51.132;16.848;2023-06-19T20:26:35;15.23;;;6.60;;
21424;SDS011;10873;51.132;16.848;2023-06-19T20:29:37;19.52;;;6.93;;
21424;SDS011;10873;51.132;16.848;2023-06-19T20:32:21;10.02;;;6.53;;
21424;SDS011;10873;51.132;16.848;2023-06-19T20:35:51;13.70;;;6.75;;
21424;SDS011;10873;51.132;16.848;2023-06-19T20:38:31;11.77;;;6.63;;
21424;SDS011;10873;51.132;16.848;2023-06-19T20:41:32;10.10;;;6.85;;
21424;SDS011;10873;51.132;16.848;2023-06-19T20:44:45;14.45;;;7.05;;
21424;SDS011;10873;51.132;16.848;2023-06-19T20:47:35;10.68;;;6.63;;
21424;SDS011;10873;51.132;16.848;2023-06-19T20:53:18;11.90;;;6.97;;
21424;SDS011;10873;51.132;16.848;2023-06-19T20:56:35;14.15;;;6.90;;
21424;SDS011;10873;51.132;16.848;2023-06-19T20:59:24;9.05;;;6.68;;
21424;SDS011;10873;51.132;16.848;2023-06-19T21:02:24;9.32;;;6.88;;
21424;SDS011;10873;51.132;16.848;2023-06-19T21:08:03;8.73;;;6.55;;
21424;SDS011;10873;51.132;16.848;2023-06-19T21:11:37;10.32;;;6.75;;
21424;SDS011;10873;51.132;16.848;2023-06-19T21:14:39;12.77;;;7.22;;
21424;SDS011;10873;51.132;16.848;2023-06-19T21:17:32;15.05;;;6.85;;
21424;SDS011;10873;51.132;16.848;2023-06-19T21:20:12;14.00;;;7.97;;
21424;SDS011;10873;51.132;16.848;2023-06-19T21:23:10;13.57;;;7.97;;
21424;SDS011;10873;51.132;16.848;2023-06-19T21:26:53;14.57;;;7.10;;